Time;durP1;ratioP1;P1;durP2;ratioP2;P2;SDS_P1;SDS_P2;PMS_P1;PMS_P2;Temp;Humidity;BMP_temperature;BMP_pressure;BME280_temperature;BME280_humidity;BME280_pressure;Samples;Min_cycle;Max_cycle;Signal;HPM_P1;HPM_P2
2023/11/12 00:00:07;;;;;;;5.88;3.20;;;;;;;7.69;100.00;99059.78;5016978;28;20033;-84
2023/11/12 00:02:33;;;;;;;6.90;3.10;;;;;;;7.72;100.00;99057.53;5034811;28;20468;-84
2023/11/12 00:04:58;;;;;;;7.78;3.10;;;;;;;7.74;100.00;99040.47;5000958;28;20041;-84
2023/11/12 00:07:24;;;;;;;4.55;2.70;;;;;;;7.72;100.00;99043.31;5034420;28;20116;-84
2023/11/12 00:09:50;;;;;;;5.35;2.90;;;;;;;7.60;100.00;99024.34;5033592;28;20148;-84
2023/11/12 00:12:16;;;;;;;6.63;3.50;;;;;;;7.71;100.00;99045.19;4982627;28;20124;-83
2023/11/12 00:14:45;;;;;;;7.93;3.47;;;;;;;7.69;100.00;99047.22;5015009;28;20044;-83
2023/11/12 00:17:13;;;;;;;4.97;3.15;;;;;;;7.70;100.00;99048.06;5033219;28;20032;-83
2023/11/12 00:19:40;;;;;;;7.53;3.20;;;;;;;7.69;100.00;99041.88;5032636;28;20029;-83
2023/11/12 00:22:09;;;;;;;6.18;3.10;;;;;;;7.66;100.00;99039.59;5016503;28;20112;-83
2023/11/12 00:24:35;;;;;;;6.13;3.20;;;;;;;7.72;100.00;99037.97;5016164;28;20059;-86
2023/11/12 00:27:00;;;;;;;5.25;2.95;;;;;;;7.73;100.00;99039.66;4999736;28;20135;-84
2023/11/12 00:29:26;;;;;;;6.72;2.78;;;;;;;7.80;100.00;99043.16;5015640;28;20529;-83
2023/11/12 00:31:53;;;;;;;10.10;5.03;;;;;;;7.76;100.00;99041.91;5016008;28;20052;-84
2023/11/12 00:34:18;;;;;;;9.13;4.88;;;;;;;7.74;100.00;99033.25;5032602;28;20037;-84
2023/11/12 00:36:44;;;;;;;6.65;4.82;;;;;;;7.70;100.00;99030.16;5032484;28;20041;-84
2023/11/12 00:39:11;;;;;;;10.50;4.00;;;;;;;7.63;100.00;99020.47;5016891;28;20471;-84
2023/11/12 00:41:39;;;;;;;9.60;6.25;;;;;;;7.60;100.00;99023.53;5032912;28;20052;-84
2023/11/12 00:44:06;;;;;;;7.22;4.00;;;;;;;7.58;100.00;99012.22;5032713;28;20028;-84
2023/11/12 00:46:32;;;;;;;5.05;2.97;;;;;;;7.60;100.00;99015.53;5016664;28;20079;-84
2023/11/12 00:48:58;;;;;;;9.70;3.65;;;;;;;7.57;100.00;99018.56;5016146;28;20040;-84
2023/11/12 00:51:24;;;;;;;7.57;3.83;;;;;;;7.52;100.00;99013.00;5032602;28;20112;-84
2023/11/12 00:53:50;;;;;;;7.07;3.50;;;;;;;7.47;100.00;99013.59;5000201;28;20432;-85
2023/11/12 00:56:15;;;;;;;8.40;4.80;;;;;;;7.38;100.00;99012.94;5016508;28;20067;-84
2023/11/12 00:58:42;;;;;;;7.38;3.90;;;;;;;7.36;100.00;99017.66;5016306;28;20456;-85
2023/11/12 01:01:09;;;;;;;6.43;3.15;;;;;;;7.33;100.00;99015.38;5033591;28;20460;-85
2023/11/12 01:03:34;;;;;;;5.60;2.60;;;;;;;7.30;100.00;99021.09;4984098;28;20133;-85
2023/11/12 01:06:03;;;;;;;6.22;3.17;;;;;;;7.29;100.00;99018.66;5021042;28;20033;-83
2023/11/12 01:08:32;;;;;;;10.40;3.78;;;;;;;7.24;100.00;99006.69;5029519;28;20089;-84
2023/11/12 01:10:58;;;;;;;6.63;3.38;;;;;;;7.21;100.00;99000.91;5020555;28;20392;-85
2023/11/12 01:13:24;;;;;;;5.50;3.03;;;;;;;7.20;100.00;98999.28;5016101;28;20029;-85
2023/11/12 01:15:51;;;;;;;9.55;3.65;;;;;;;7.16;100.00;98987.31;5016284;28;20353;-84
2023/11/12 01:18:18;;;;;;;8.77;3.28;;;;;;;7.19;100.00;98994.94;5016525;28;20056;-84
2023/11/12 01:20:43;;;;;;;7.70;3.92;;;;;;;7.16;100.00;98985.47;5015770;28;20484;-84
2023/11/12 01:23:09;;;;;;;11.65;3.75;;;;;;;7.16;100.00;98985.47;5032436;28;20535;-85
2023/11/12 01:25:36;;;;;;;8.43;3.60;;;;;;;7.16;100.00;98979.28;5016067;28;20044;-84
2023/11/12 01:28:02;;;;;;;6.18;3.50;;;;;;;7.11;100.00;98973.72;5015712;28;20479;-84
2023/11/12 01:30:28;;;;;;;6.30;3.40;;;;;;;7.08;100.00;98974.94;5015556;28;20040;-84
2023/11/12 01:32:54;;;;;;;6.50;2.95;;;;;;;7.04;100.00;98971.84;5016136;28;20030;-87
2023/11/12 01:35:19;;;;;;;8.82;3.80;;;;;;;7.00;100.00;98977.75;5015884;28;20033;-84
2023/11/12 01:37:48;;;;;;;10.32;3.72;;;;;;;6.96;100.00;98969.31;5015625;28;20025;-84
2023/11/12 01:40:16;;;;;;;7.85;3.47;;;;;;;6.99;100.00;98965.44;5032302;28;20587;-84
2023/11/12 01:42:45;;;;;;;5.43;3.15;;;;;;;6.96;100.00;98955.13;5032028;28;20022;-85
2023/11/12 01:45:11;;;;;;;8.52;3.55;;;;;;;6.94;100.00;98952.66;4999524;28;20030;-84
2023/11/12 01:47:38;;;;;;;7.13;3.22;;;;;;;6.95;100.00;98950.81;5019905;28;20088;-84
2023/11/12 01:50:07;;;;;;;5.63;3.70;;;;;;;6.94;100.00;98949.16;5019384;28;20380;-85
2023/11/12 01:52:33;;;;;;;8.68;3.75;;;;;;;6.93;100.00;98943.00;5002930;28;20029;-85
2023/11/12 01:55:00;;;;;;;9.05;3.53;;;;;;;6.91;100.00;98939.69;5003382;28;20033;-84
2023/11/12 01:57:26;;;;;;;6.15;3.30;;;;;;;6.89;100.00;98943.59;5019942;28;20462;-85
2023/11/12 01:59:52;;;;;;;6.20;2.78;;;;;;;6.93;100.00;98940.34;5035758;28;20033;-85
2023/11/12 02:02:19;;;;;;;5.60;3.47;;;;;;;6.94;100.00;98938.47;5019641;28;20064;-84
2023/11/12 02:04:44;;;;;;;5.72;2.78;;;;;;;6.94;100.00;98939.31;5019273;28;20116;-84
2023/11/12 02:07:10;;;;;;;5.10;2.17;;;;;;;6.93;100.00;98918.97;5003248;28;20133;-84
2023/11/12 02:09:35;;;;;;;5.95;3.10;;;;;;;7.05;100.00;98921.88;5036683;28;20025;-85
2023/11/12 02:12:01;;;;;;;3.60;1.55;;;;;;;7.09;100.00;98924.97;5036090;28;20030;-84
2023/11/12 02:14:27;;;;;;;4.18;2.20;;;;;;;7.15;100.00;98918.84;5035822;28;20460;-85
2023/11/12 02:16:53;;;;;;;9.27;3.10;;;;;;;7.16;100.00;98918.63;5035692;28;20044;-85
2023/11/12 02:19:29;;;;;;;6.28;3.30;;;;;;;7.17;100.00;98922.13;5035824;28;20030;-85
2023/11/12 02:21:55;;;;;;;15.95;8.05;;;;;;;7.13;100.00;98913.69;5003868;28;20029;-85
2023/11/12 02:24:23;;;;;;;9.70;5.35;;;;;;;7.15;100.00;98905.50;5035517;28;20044;-85
2023/11/12 02:26:49;;;;;;;7.63;3.70;;;;;;;7.16;100.00;98909.81;5003244;28;20094;-85
2023/11/12 02:29:16;;;;;;;7.50;3.88;;;;;;;7.13;100.00;98908.34;5002794;28;20068;-84
2023/11/12 02:31:42;;;;;;;11.45;5.90;;;;;;;7.16;100.00;98910.63;5035510;28;20029;-85
2023/11/12 02:34:08;;;;;;;13.65;6.68;;;;;;;7.13;100.00;98903.00;4986234;28;20444;-84
2023/11/12 02:36:35;;;;;;;13.43;8.13;;;;;;;7.11;100.00;98893.53;5035236;28;20112;-85
2023/11/12 02:39:01;;;;;;;11.77;6.90;;;;;;;7.12;100.00;98895.19;5035245;28;20033;-85
2023/11/12 02:41:27;;;;;;;9.77;4.03;;;;;;;7.12;100.00;98895.19;5035254;28;20076;-87
2023/11/12 02:43:55;;;;;;;8.18;2.55;;;;;;;7.13;100.00;98889.66;5034972;28;20033;-85
2023/11/12 02:46:21;;;;;;;4.45;2.60;;;;;;;7.13;100.00;98883.47;5018646;28;20163;-86
2023/11/12 02:49:10;;;;;;;6.22;2.20;;;;;;;7.11;100.00;98891.69;5018511;28;20038;-85
2023/11/12 02:51:36;;;;;;;3.53;1.95;;;;;;;7.13;100.00;98886.97;4986639;28;20036;-86
2023/11/12 02:54:03;;;;;;;3.83;2.10;;;;;;;7.12;100.00;98884.47;5035049;28;20108;-85
2023/11/12 02:56:28;;;;;;;4.10;1.95;;;;;;;7.09;100.00;98876.88;5018211;28;20037;-85
2023/11/12 02:58:54;;;;;;;3.67;1.48;;;;;;;7.03;100.00;98857.94;5034897;28;20032;-85
2023/11/12 03:01:20;;;;;;;3.42;1.40;;;;;;;7.11;100.00;98875.66;5034636;28;20034;-85
2023/11/12 03:03:45;;;;;;;2.25;1.05;;;;;;;7.13;100.00;98880.81;5018517;28;20068;-84
2023/11/12 03:06:12;;;;;;;2.90;1.00;;;;;;;7.13;100.00;98891.50;5034681;28;20448;-85
2023/11/12 03:08:40;;;;;;;5.07;1.13;;;;;;;7.15;100.00;98873.41;5034685;28;20029;-84
2023/11/12 03:11:05;;;;;;;0.40;0.40;;;;;;;7.16;100.00;98859.03;5034641;28;20056;-83
2023/11/12 03:13:31;;;;;;;0.43;0.43;;;;;;;7.16;100.00;98864.38;5018088;28;20114;-84
2023/11/12 03:15:57;;;;;;;0.40;0.40;;;;;;;7.16;100.00;98867.03;5034202;28;20064;-84
2023/11/12 03:18:22;;;;;;;0.40;0.40;;;;;;;7.14;100.00;98856.53;5034675;28;20479;-87
2023/11/12 03:20:48;;;;;;;0.40;0.40;;;;;;;7.19;100.00;98863.97;5019519;28;20052;-85
2023/11/12 03:23:14;;;;;;;0.40;0.40;;;;;;;7.15;100.00;98846.69;5029591;28;20022;-84
2023/11/12 03:25:40;;;;;;;0.40;0.40;;;;;;;7.16;100.00;98857.16;5024700;28;20132;-85
2023/11/12 03:28:05;;;;;;;0.40;0.40;;;;;;;7.15;100.00;98852.84;5034197;28;20087;-85
2023/11/12 03:30:32;;;;;;;0.30;0.30;;;;;;;7.13;100.00;98849.56;5034047;28;20040;-84
2023/11/12 03:32:58;;;;;;;0.32;0.32;;;;;;;7.13;100.00;98851.41;5034018;28;20037;-85
2023/11/12 03:35:23;;;;;;;0.40;0.40;;;;;;;7.13;100.00;98838.88;5017959;28;20030;-85
2023/11/12 03:37:49;;;;;;;0.40;0.40;;;;;;;7.14;100.00;98834.34;5017574;28;20081;-85
2023/11/12 03:40:14;;;;;;;0.40;0.40;;;;;;;7.15;100.00;98838.69;5017693;28;20353;-84
2023/11/12 03:42:40;;;;;;;0.30;0.30;;;;;;;7.14;100.00;98829.00;5017405;28;20033;-84
2023/11/12 03:45:06;;;;;;;0.30;0.30;;;;;;;7.15;100.00;98828.81;5033756;28;20025;-84
2023/11/12 03:47:32;;;;;;;0.40;0.40;;;;;;;7.17;100.00;98828.59;5001458;28;20040;-84
2023/11/12 03:49:57;;;;;;;0.40;0.40;;;;;;;7.16;100.00;98814.41;5034526;28;20392;-84
2023/11/12 03:52:23;;;;;;;0.30;0.30;;;;;;;7.18;100.00;98815.03;5034893;28;20030;-85
2023/11/12 03:54:49;;;;;;;0.35;0.35;;;;;;;7.18;100.00;98808.88;5017156;28;20022;-84
2023/11/12 03:57:15;;;;;;;0.47;0.47;;;;;;;7.14;100.00;98803.09;5017056;28;20480;-84
2023/11/12 03:59:41;;;;;;;0.40;0.40;;;;;;;7.19;100.00;98797.13;5033822;28;20030;-86
2023/11/12 04:02:07;;;;;;;0.40;0.40;;;;;;;7.17;100.00;98783.16;5017522;28;20036;-85
2023/11/12 04:04:33;;;;;;;0.40;0.40;;;;;;;7.19;100.00;98783.78;5017398;28;20375;-85
2023/11/12 04:06:58;;;;;;;0.40;0.40;;;;;;;7.10;100.00;98775.13;5001237;28;20029;-85
2023/11/12 04:09:24;;;;;;;0.40;0.40;;;;;;;7.19;100.00;98779.25;5033878;28;20531;-85
2023/11/12 04:11:50;;;;;;;0.40;0.40;;;;;;;7.21;100.00;98793.25;5000589;28;20029;-84
2023/11/12 04:14:15;;;;;;;0.40;0.40;;;;;;;7.20;100.00;98791.59;5000907;28;20021;-84
2023/11/12 04:16:41;;;;;;;0.40;0.40;;;;;;;7.23;100.00;98801.06;5033660;28;20044;-84
2023/11/12 04:19:07;;;;;;;0.40;0.40;;;;;;;7.22;100.00;98789.56;5000860;28;20041;-83
2023/11/12 04:21:34;;;;;;;0.40;0.40;;;;;;;7.23;100.00;98788.53;5033081;28;20029;-84
2023/11/12 04:24:00;;;;;;;0.40;0.40;;;;;;;7.22;100.00;98786.88;5000549;28;20487;-84
2023/11/12 04:26:27;;;;;;;0.38;0.38;;;;;;;7.20;100.00;98785.44;5033321;28;20033;-84
2023/11/12 04:28:53;;;;;;;0.40;0.40;;;;;;;7.20;100.00;98780.09;5033297;28;20056;-83
2023/11/12 04:31:18;;;;;;;0.40;0.40;;;;;;;7.17;100.00;98777.81;5016658;28;20556;-83
2023/11/12 04:33:46;;;;;;;0.50;0.50;;;;;;;7.15;100.00;98778.03;5032530;28;20034;-84
2023/11/12 04:36:12;;;;;;;0.40;0.40;;;;;;;7.17;100.00;98767.09;5033040;28;20112;-83
2023/11/12 04:38:38;;;;;;;0.50;0.50;;;;;;;7.19;100.00;98765.06;5032643;28;20060;-83
2023/11/12 04:41:04;;;;;;;0.40;0.40;;;;;;;7.19;100.00;98765.88;5033709;28;20045;-83
2023/11/12 04:43:30;;;;;;;0.40;0.40;;;;;;;7.18;100.00;98776.78;5016471;28;20116;-82
2023/11/12 04:45:56;;;;;;;0.40;0.40;;;;;;;7.15;100.00;98767.31;5032975;28;20029;-82
2023/11/12 04:48:22;;;;;;;0.40;0.40;;;;;;;7.15;100.00;98758.50;5000559;28;20087;-81
2023/11/12 04:50:47;;;;;;;0.38;0.38;;;;;;;7.19;100.00;98762.38;5016316;28;20096;-83
2023/11/12 04:53:13;;;;;;;0.40;0.40;;;;;;;7.21;100.00;98755.81;5016329;28;20029;-83
2023/11/12 04:55:39;;;;;;;0.40;0.40;;;;;;;7.18;100.00;98753.56;5032506;28;20030;-82
2023/11/12 04:58:06;;;;;;;0.40;0.40;;;;;;;7.25;100.00;98756.22;4999813;28;20472;-82
2023/11/12 05:00:31;;;;;;;0.40;0.40;;;;;;;7.22;100.00;98744.13;5033690;28;20522;-83
2023/11/12 05:02:57;;;;;;;0.40;0.40;;;;;;;7.25;100.00;98742.84;5015933;28;20029;-83
2023/11/12 05:05:22;;;;;;;0.50;0.50;;;;;;;7.24;100.00;98738.56;5015952;28;20488;-83
2023/11/12 05:07:49;;;;;;;0.40;0.40;;;;;;;7.23;100.00;98744.94;5033088;28;20029;-82
2023/11/12 05:10:15;;;;;;;0.43;0.43;;;;;;;7.20;100.00;98726.63;5032247;28;20030;-83
2023/11/12 05:12:40;;;;;;;0.43;0.43;;;;;;;7.25;100.00;98737.50;4999531;28;20060;-83
2023/11/12 05:15:08;;;;;;;0.40;0.40;;;;;;;7.27;100.00;98733.59;4999940;28;20092;-83
2023/11/12 05:17:36;;;;;;;0.40;0.40;;;;;;;7.26;100.00;98728.47;5032280;28;20487;-82
2023/11/12 05:20:03;;;;;;;0.40;0.40;;;;;;;7.26;100.00;98726.63;5032123;28;20531;-82
2023/11/12 05:22:30;;;;;;;0.47;0.47;;;;;;;7.26;100.00;98729.31;5000627;28;20034;-82
2023/11/12 05:24:55;;;;;;;0.35;0.35;;;;;;;7.26;100.00;98723.13;5016095;28;20524;-82
2023/11/12 05:27:21;;;;;;;0.40;0.40;;;;;;;7.28;100.00;98710.41;5015795;28;20029;-82
2023/11/12 05:29:47;;;;;;;0.40;0.40;;;;;;;7.29;100.00;98717.38;4999764;28;20039;-82
2023/11/12 05:32:12;;;;;;;0.40;0.40;;;;;;;7.33;100.00;98715.97;5016090;28;20037;-82
2023/11/12 05:34:39;;;;;;;0.40;0.40;;;;;;;7.35;100.00;98713.88;5017219;28;20111;-81
2023/11/12 05:37:05;;;;;;;0.45;0.45;;;;;;;7.34;100.00;98711.44;5033065;28;20036;-82
2023/11/12 05:39:31;;;;;;;0.40;0.40;;;;;;;7.35;100.00;98694.34;5031931;28;20037;-82
2023/11/12 05:41:57;;;;;;;0.40;0.40;;;;;;;7.38;100.00;98685.91;5033308;28;20471;-83
2023/11/12 05:44:23;;;;;;;0.40;0.40;;;;;;;7.43;100.00;98694.13;5032357;28;20033;-82
2023/11/12 05:46:48;;;;;;;0.40;0.40;;;;;;;7.37;100.00;98679.75;5000494;28;20060;-82
2023/11/12 05:49:14;;;;;;;0.40;0.40;;;;;;;7.51;100.00;98699.28;5032018;28;20456;-83
2023/11/12 05:51:40;;;;;;;0.40;0.40;;;;;;;7.56;100.00;98709.34;5015900;28;20034;-83
2023/11/12 05:54:06;;;;;;;0.40;0.40;;;;;;;7.52;100.00;98702.78;4999293;28;20099;-82
2023/11/12 05:56:32;;;;;;;0.40;0.40;;;;;;;7.49;100.00;98704.03;4999651;28;20036;-82
2023/11/12 05:58:58;;;;;;;0.40;0.40;;;;;;;7.50;100.00;98713.69;5033398;28;20022;-82
2023/11/12 06:01:24;;;;;;;0.40;0.40;;;;;;;7.52;100.00;98725.00;5031329;28;20037;-82
2023/11/12 06:03:49;;;;;;;0.40;0.40;;;;;;;7.49;100.00;98731.59;4983429;28;20141;-82
2023/11/12 06:06:15;;;;;;;0.30;0.30;;;;;;;7.51;100.00;98738.56;5015431;28;20039;-82
2023/11/12 06:08:41;;;;;;;0.40;0.40;;;;;;;7.52;100.00;98727.69;5015805;28;20079;-82
2023/11/12 06:11:07;;;;;;;0.50;0.50;;;;;;;7.53;100.00;98726.63;5031750;28;20033;-82
2023/11/12 06:13:33;;;;;;;0.40;0.40;;;;;;;7.53;100.00;98733.84;5032048;28;20030;-83
2023/11/12 06:15:58;;;;;;;0.40;0.40;;;;;;;7.54;100.00;98735.47;5015589;28;20060;-84
2023/11/12 06:18:24;;;;;;;0.40;0.40;;;;;;;7.45;100.00;98726.84;5015491;28;20468;-83
2023/11/12 06:20:49;;;;;;;0.40;0.40;;;;;;;7.47;100.00;98732.81;5015741;28;20041;-82
2023/11/12 06:23:15;;;;;;;0.40;0.40;;;;;;;7.38;100.00;98713.50;4999451;28;20044;-82
2023/11/12 06:25:41;;;;;;;0.40;0.40;;;;;;;7.49;100.00;98715.53;5015378;28;20152;-82
2023/11/12 06:28:06;;;;;;;0.40;0.40;;;;;;;7.52;100.00;98718.84;4999096;28;20420;-82
2023/11/12 06:30:32;;;;;;;0.40;0.40;;;;;;;7.49;100.00;98712.88;5031660;28;20038;-82
2023/11/12 06:32:59;;;;;;;0.38;0.38;;;;;;;7.49;100.00;98722.75;5034597;28;20040;-83
2023/11/12 06:35:28;;;;;;;0.40;0.40;;;;;;;7.49;100.00;98726.25;5002976;28;20034;-83
2023/11/12 06:37:54;;;;;;;0.47;0.47;;;;;;;7.53;100.00;98733.84;4987333;28;20065;-83
2023/11/12 06:40:19;;;;;;;0.43;0.43;;;;;;;7.56;100.00;98720.06;5002449;28;20033;-83
2023/11/12 06:42:45;;;;;;;0.40;0.40;;;;;;;7.59;100.00;98716.97;5018935;28;20037;-83
2023/11/12 06:45:12;;;;;;;0.40;0.40;;;;;;;7.61;100.00;98718.41;5018925;28;20051;-83
2023/11/12 06:47:37;;;;;;;0.40;0.40;;;;;;;7.65;100.00;98724.19;5018497;28;20030;-83
2023/11/12 06:50:04;;;;;;;0.40;0.40;;;;;;;7.67;100.00;98730.13;5034711;28;20542;-82
2023/11/12 06:52:30;;;;;;;0.40;0.40;;;;;;;7.61;100.00;98715.72;5034785;28;20080;-83
2023/11/12 06:54:56;;;;;;;0.40;0.40;;;;;;;7.66;100.00;98715.94;5002947;28;20029;-83
2023/11/12 06:57:21;;;;;;;0.30;0.30;;;;;;;7.67;100.00;98706.06;5034710;28;20025;-83
2023/11/12 06:59:47;;;;;;;0.40;0.40;;;;;;;7.70;100.00;98717.19;5018321;28;20468;-83
2023/11/12 07:02:12;;;;;;;0.40;0.40;;;;;;;7.69;100.00;98720.03;5034876;28;20040;-83
2023/11/12 07:04:38;;;;;;;0.40;0.40;;;;;;;7.72;100.00;98715.09;5034391;28;20029;-84
2023/11/12 07:07:05;;;;;;;0.40;0.40;;;;;;;7.71;100.00;98718.00;5034416;28;20038;-83
2023/11/12 07:09:31;;;;;;;0.40;0.40;;;;;;;7.68;100.00;98705.03;5034998;28;20032;-83
2023/11/12 07:11:57;;;;;;;0.47;0.47;;;;;;;7.66;100.00;98709.75;5035682;28;20396;-83
2023/11/12 07:14:24;;;;;;;0.40;0.40;;;;;;;7.63;100.00;98720.88;5017855;28;20496;-83
2023/11/12 07:16:50;;;;;;;0.40;0.40;;;;;;;7.59;100.00;98712.44;5018272;28;20052;-83
2023/11/12 07:19:15;;;;;;;0.40;0.40;;;;;;;7.59;100.00;98716.97;5001691;28;20392;-83
2023/11/12 07:21:41;;;;;;;0.40;0.40;;;;;;;7.52;100.00;98716.16;5018227;28;20033;-82
2023/11/12 07:24:07;;;;;;;0.40;0.40;;;;;;;7.56;100.00;98725.41;5001482;28;20048;-83
2023/11/12 07:26:33;;;;;;;0.40;0.40;;;;;;;7.58;100.00;98728.69;5034131;28;20040;-84
2023/11/12 07:28:59;;;;;;;0.40;0.40;;;;;;;7.54;100.00;98732.81;5034599;28;20124;-83
2023/11/12 07:31:25;;;;;;;0.50;0.50;;;;;;;7.58;100.00;98734.06;5017643;28;20391;-83
2023/11/12 07:33:51;;;;;;;0.40;0.40;;;;;;;7.58;100.00;98728.69;5017522;28;20030;-82
2023/11/12 07:36:17;;;;;;;0.40;0.40;;;;;;;7.56;100.00;98725.41;5017981;28;20040;-83
2023/11/12 07:38:42;;;;;;;0.40;0.40;;;;;;;7.57;100.00;98733.22;5018047;28;20063;-82
2023/11/12 07:41:08;;;;;;;0.40;0.40;;;;;;;7.55;100.00;98724.59;5001631;28;20044;-82
2023/11/12 07:43:35;;;;;;;0.40;0.40;;;;;;;7.49;100.00;98726.25;5033300;28;20029;-83
2023/11/12 07:46:02;;;;;;;0.40;0.40;;;;;;;7.57;100.00;98740.41;5035626;28;20037;-82
2023/11/12 07:48:29;;;;;;;0.40;0.40;;;;;;;7.58;100.00;98737.53;5018327;28;20029;-83
2023/11/12 07:50:56;;;;;;;0.40;0.40;;;;;;;7.61;100.00;98739.81;5035361;28;20029;-84
2023/11/12 07:53:22;;;;;;;0.40;0.40;;;;;;;7.59;100.00;98744.53;5033645;28;20029;-84
2023/11/12 07:55:47;;;;;;;0.40;0.40;;;;;;;7.66;100.00;98756.06;5035035;28;20036;-84
2023/11/12 07:58:13;;;;;;;0.40;0.40;;;;;;;7.65;100.00;98753.59;5001142;28;20036;-83
2023/11/12 08:00:39;;;;;;;0.40;0.40;;;;;;;7.66;100.00;98757.91;5000846;28;20567;-84
2023/11/12 08:03:04;;;;;;;0.40;0.40;;;;;;;7.65;100.00;98756.28;5017288;28;20448;-85
2023/11/12 08:05:30;;;;;;;0.40;0.40;;;;;;;7.59;100.00;98754.41;5001172;28;20033;-83
2023/11/12 08:07:55;;;;;;;0.40;0.40;;;;;;;7.56;100.00;98752.97;5017091;28;20084;-84
2023/11/12 08:10:21;;;;;;;0.40;0.40;;;;;;;7.53;100.00;98763.25;5017146;28;20037;-84
2023/11/12 08:12:47;;;;;;;0.43;0.43;;;;;;;7.47;100.00;98751.53;5016779;28;20029;-84
2023/11/12 08:15:13;;;;;;;0.40;0.40;;;;;;;7.57;100.00;98767.16;5016789;28;20034;-86
2023/11/12 08:17:39;;;;;;;0.40;0.40;;;;;;;7.63;100.00;98769.84;5000289;28;20041;-85
2023/11/12 08:20:06;;;;;;;0.50;0.50;;;;;;;7.67;100.00;98764.91;5034596;28;20037;-83
2023/11/12 08:22:31;;;;;;;0.40;0.40;;;;;;;7.69;100.00;98777.03;5016187;28;20470;-82
2023/11/12 08:24:57;;;;;;;0.40;0.40;;;;;;;7.67;100.00;98762.22;5000219;28;20117;-83
2023/11/12 08:27:23;;;;;;;0.40;0.40;;;;;;;7.71;100.00;98766.97;5000730;28;20072;-83
2023/11/12 08:29:49;;;;;;;0.40;0.40;;;;;;;7.79;100.00;98768.63;5032984;28;20064;-82
2023/11/12 08:32:15;;;;;;;0.40;0.40;;;;;;;7.78;100.00;98776.84;5031442;28;20112;-82
2023/11/12 08:34:41;;;;;;;0.43;0.43;;;;;;;7.81;100.00;98768.41;5032518;28;20052;-82
2023/11/12 08:37:07;;;;;;;0.40;0.40;;;;;;;7.90;100.00;98778.69;5016804;28;20091;-82
2023/11/12 08:39:33;;;;;;;0.40;0.40;;;;;;;7.92;100.00;98783.84;5000343;28;20090;-83
2023/11/12 08:41:59;;;;;;;0.40;0.40;;;;;;;7.93;100.00;98780.94;5016060;28;20078;-83
2023/11/12 08:44:25;;;;;;;0.40;0.40;;;;;;;7.92;100.00;98778.50;5016590;28;20032;-83
2023/11/12 08:46:51;;;;;;;0.40;0.40;;;;;;;7.92;100.00;98783.84;5032842;28;20554;-84
2023/11/12 08:49:17;;;;;;;0.50;0.50;;;;;;;7.95;100.00;98785.28;5000160;28;21988;-83
2023/11/12 08:51:43;;;;;;;0.40;0.40;;;;;;;8.02;100.00;98796.78;4999762;28;20460;-83
2023/11/12 08:54:09;;;;;;;0.40;0.40;;;;;;;8.12;100.00;98790.00;5015826;28;20040;-84
2023/11/12 08:56:35;;;;;;;0.40;0.40;;;;;;;8.21;100.00;98801.31;5016324;28;20108;-83
2023/11/12 08:59:03;;;;;;;0.40;0.40;;;;;;;8.35;100.00;98807.47;5015926;28;20501;-84
2023/11/12 09:01:32;;;;;;;0.40;0.40;;;;;;;8.35;100.00;98799.41;5032701;28;20472;-83
2023/11/12 09:03:58;;;;;;;0.40;0.40;;;;;;;8.26;100.00;98800.69;5032318;28;20025;-83
2023/11/12 09:06:23;;;;;;;0.32;0.32;;;;;;;8.14;100.00;98795.13;5015870;28;20029;-84
2023/11/12 09:08:53;;;;;;;0.50;0.50;;;;;;;8.02;100.00;98805.66;4999648;28;20044;-83
2023/11/12 09:11:18;;;;;;;0.40;0.40;;;;;;;7.99;100.00;98799.88;5032398;28;20040;-83
2023/11/12 09:13:45;;;;;;;0.40;0.40;;;;;;;8.02;100.00;98807.50;5015161;28;20033;-83
2023/11/12 09:16:10;;;;;;;0.40;0.40;;;;;;;8.30;100.00;98804.59;5032443;28;20029;-83
2023/11/12 09:18:37;;;;;;;0.40;0.40;;;;;;;8.60;100.00;98818.38;5015247;28;20109;-84
2023/11/12 09:21:03;;;;;;;0.40;0.40;;;;;;;9.14;100.00;98814.41;5016057;28;20033;-83
2023/11/12 09:23:28;;;;;;;0.50;0.50;;;;;;;10.02;100.00;98816.28;4999860;28;20071;-83
2023/11/12 09:25:54;;;;;;;0.40;0.40;;;;;;;10.52;100.00;98810.88;4999740;28;20526;-84
2023/11/12 09:28:20;;;;;;;0.40;0.40;;;;;;;10.15;100.00;98809.16;4999726;28;20030;-84
2023/11/12 09:30:45;;;;;;;0.40;0.40;;;;;;;9.93;100.00;98800.69;5015900;28;20095;-84
2023/11/12 09:33:12;;;;;;;0.45;0.45;;;;;;;10.32;100.00;98811.09;5016133;28;20040;-84
2023/11/12 09:35:39;;;;;;;0.40;0.40;;;;;;;10.92;100.00;98821.19;5016287;28;20436;-83
2023/11/12 09:38:05;;;;;;;0.40;0.40;;;;;;;10.60;100.00;98825.91;5015739;28;20471;-83
2023/11/12 09:40:31;;;;;;;0.40;0.40;;;;;;;10.03;100.00;98827.84;5015877;28;20029;-83
2023/11/12 09:42:57;;;;;;;0.40;0.40;;;;;;;9.83;100.00;98825.34;5032611;28;20460;-83
2023/11/12 09:45:24;;;;;;;0.40;0.40;;;;;;;9.81;100.00;98822.84;5032414;28;20029;-83
2023/11/12 09:47:53;;;;;;;0.45;0.45;;;;;;;9.94;100.00;98824.63;5031909;28;20137;-84
2023/11/12 09:50:20;;;;;;;0.40;0.40;;;;;;;11.53;100.00;98827.41;5015598;28;20380;-84
2023/11/12 09:52:47;;;;;;;0.50;0.50;;;;;;;12.89;100.00;98834.69;5032175;28;20498;-84
2023/11/12 09:55:15;;;;;;;0.40;0.40;;;;;;;12.97;100.00;98842.41;5031940;28;20028;-84
2023/11/12 09:57:41;;;;;;;0.40;0.40;;;;;;;12.69;100.00;98837.75;5015744;28;20472;-84
2023/11/12 10:00:07;;;;;;;0.40;0.40;;;;;;;12.84;100.00;98842.66;4999364;28;20068;-84
2023/11/12 10:02:35;;;;;;;0.40;0.40;;;;;;;13.51;100.00;98852.94;5033398;28;20095;-85
2023/11/12 10:05:04;;;;;;;0.50;0.50;;;;;;;14.22;100.00;98848.75;5015557;28;20503;-85
2023/11/12 10:07:29;;;;;;;0.40;0.40;;;;;;;14.26;100.00;98865.28;5035047;28;20458;-84
2023/11/12 10:09:55;;;;;;;0.40;0.40;;;;;;;14.01;100.00;98853.00;5035763;28;20108;-84
2023/11/12 10:12:21;;;;;;;0.40;0.40;;;;;;;13.69;100.00;98857.31;5027471;28;20048;-84
2023/11/12 10:14:53;;;;;;;0.38;0.38;;;;;;;14.03;100.00;98850.88;5022898;28;20026;-84
2023/11/12 10:17:19;;;;;;;0.50;0.50;;;;;;;13.36;100.00;98873.19;5036533;28;20464;-85
2023/11/12 10:19:56;;;;;;;0.40;0.40;;;;;;;13.84;100.00;98871.09;5019540;28;20040;-85
2023/11/12 10:22:36;;;;;;;0.40;0.40;;;;;;;13.85;100.00;98873.53;5036426;28;20033;-84
2023/11/12 10:25:02;;;;;;;0.40;0.40;;;;;;;13.66;100.00;98871.31;5019086;28;20135;-84
2023/11/12 10:27:28;;;;;;;0.55;0.55;;;;;;;13.53;100.00;98870.53;5036494;28;20022;-84
2023/11/12 10:29:53;;;;;;;0.40;0.40;;;;;;;13.59;100.00;98884.94;5002685;28;20037;-85
2023/11/12 10:32:25;;;;;;;0.40;0.40;;;;;;;13.65;100.00;98892.06;5019256;28;20043;-85
2023/11/12 10:34:51;;;;;;;0.47;0.47;;;;;;;13.70;100.00;98905.66;5037801;28;20029;-89
2023/11/12 10:37:19;;;;;;;0.40;0.40;;;;;;;13.71;100.00;98903.81;5036340;28;20163;-89
2023/11/12 10:39:46;;;;;;;0.40;0.40;;;;;;;13.54;100.00;98907.25;5036274;28;20400;-88
2023/11/12 10:42:24;;;;;;;0.40;0.40;;;;;;;13.39;100.00;98915.06;5019186;28;20036;-88
2023/11/12 10:44:57;;;;;;;0.30;0.30;;;;;;;12.87;100.00;98918.53;5018800;28;20037;-88
2023/11/12 10:47:29;;;;;;;0.40;0.40;;;;;;;12.73;100.00;98912.56;5018804;28;20168;-87
2023/11/12 10:49:55;;;;;;;0.50;0.50;;;;;;;13.07;100.00;98926.25;5035151;28;20476;-88
2023/11/12 10:52:21;;;;;;;0.30;0.30;;;;;;;13.33;100.00;98919.53;5035306;28;20029;-88
2023/11/12 10:54:47;;;;;;;0.45;0.45;;;;;;;13.07;100.00;98920.84;5018624;28;20108;-89
2023/11/12 10:57:13;;;;;;;0.40;0.40;;;;;;;12.67;100.00;98937.75;5035312;28;20056;-89
2023/11/12 10:59:44;;;;;;;0.40;0.40;;;;;;;12.60;100.00;98945.16;5035292;28;20029;-88
2023/11/12 11:02:19;;;;;;;0.35;0.35;;;;;;;12.66;100.00;98952.28;5018454;28;20048;-89
2023/11/12 11:04:45;;;;;;;0.40;0.40;;;;;;;13.00;100.00;98954.41;5018919;28;20030;-88
2023/11/12 11:07:12;;;;;;;0.50;0.50;;;;;;;13.23;100.00;98961.66;5002248;28;20045;-87
2023/11/12 11:09:38;;;;;;;0.50;0.50;;;;;;;13.35;100.00;98954.38;5018532;28;20041;-88
2023/11/12 11:12:04;;;;;;;0.40;0.40;;;;;;;13.68;100.00;98961.81;5018203;28;20029;-88
2023/11/12 11:14:29;;;;;;;0.40;0.40;;;;;;;13.53;100.00;98951.53;5034839;28;20040;-88
2023/11/12 11:16:55;;;;;;;0.30;0.30;;;;;;;13.07;100.00;98957.78;5034475;28;20025;-86
2023/11/12 11:19:43;;;;;;;0.40;0.40;;;;;;;12.69;100.00;98959.09;5034927;28;20061;-88
2023/11/12 11:22:24;;;;;;;0.40;0.40;;;;;;;12.50;100.00;98945.72;5035820;28;20028;-87
2023/11/12 11:24:52;;;;;;;0.40;0.40;;;;;;;12.67;100.00;98940.44;5017659;28;20125;-89
2023/11/12 11:27:19;;;;;;;0.65;0.65;;;;;;;13.02;100.00;98954.97;5034625;28;20029;-89